createdAt,value
2023-02-02T00:00:29.073Z,88.18
2023-02-02T00:01:29.082Z,88.07
2023-02-02T00:02:29.080Z,87.87
2023-02-02T00:03:29.046Z,87.51
2023-02-02T00:04:29.032Z,87.41
2023-02-02T00:05:29.021Z,87.20
2023-02-02T00:06:29.001Z,87.20
2023-02-02T00:07:29.011Z,86.99
2023-02-02T00:08:28.991Z,86.89
2023-02-02T00:09:29.442Z,87.10
2023-02-02T00:10:28.950Z,86.99
2023-02-02T00:11:28.976Z,86.68
2023-02-02T00:12:28.934Z,86.47
2023-02-02T00:13:28.935Z,86.54
2023-02-02T00:14:28.921Z,86.68
2023-02-02T00:15:29.517Z,86.89
2023-02-02T00:16:28.906Z,86.79
2023-02-02T00:17:28.899Z,86.68
2023-02-02T00:18:28.845Z,86.58
2023-02-02T00:19:28.866Z,86.44
2023-02-02T00:20:28.825Z,86.65
2023-02-02T00:21:29.585Z,86.54
2023-02-02T00:22:28.845Z,86.33
2023-02-02T00:23:28.786Z,86.44
2023-02-02T00:24:28.772Z,86.54
2023-02-02T00:25:28.774Z,86.54
2023-02-02T00:26:28.823Z,86.44
2023-02-02T00:27:28.793Z,86.23
2023-02-02T00:28:28.736Z,86.23
2023-02-02T00:29:28.730Z,86.33
2023-02-02T00:30:28.724Z,86.23
2023-02-02T00:31:28.763Z,86.44
2023-02-02T00:32:28.673Z,86.33
2023-02-02T00:33:28.745Z,86.54
2023-02-02T00:34:28.666Z,86.54
2023-02-02T00:35:28.642Z,86.44
2023-02-02T00:36:28.625Z,86.23
2023-02-02T00:37:28.628Z,86.13
2023-02-02T00:38:28.590Z,85.99
2023-02-02T00:39:28.600Z,86.13
2023-02-02T00:40:28.567Z,85.88
2023-02-02T00:41:28.570Z,85.78
2023-02-02T00:42:28.561Z,85.88
2023-02-02T00:43:28.541Z,85.88
2023-02-02T00:44:28.530Z,85.99
2023-02-02T00:45:28.548Z,85.99
2023-02-02T00:46:28.502Z,85.88
2023-02-02T00:47:28.505Z,85.78
2023-02-02T00:48:28.472Z,85.99
2023-02-02T00:49:28.487Z,86.19
2023-02-02T00:50:28.444Z,86.50
2023-02-02T00:51:28.455Z,86.50
2023-02-02T00:52:28.476Z,86.71
2023-02-02T00:53:28.407Z,86.71
2023-02-02T00:54:28.403Z,87.12
2023-02-02T00:55:28.386Z,87.12
2023-02-02T00:56:28.383Z,87.43
2023-02-02T00:57:28.379Z,87.27
2023-02-02T00:58:28.355Z,87.33
2023-02-02T00:59:28.344Z,87.37
2023-02-02T01:00:28.324Z,87.43
2023-02-02T01:01:28.315Z,87.23
2023-02-02T01:02:28.350Z,87.02
2023-02-02T01:03:28.298Z,87.33
2023-02-02T01:04:28.285Z,87.64
2023-02-02T01:05:28.262Z,87.95
2023-02-02T01:06:28.246Z,88.46
2023-02-02T01:07:28.273Z,89.03
2023-02-02T01:08:28.223Z,89.75
2023-02-02T01:09:28.230Z,90.26
2023-02-02T01:10:28.192Z,90.37
2023-02-02T01:11:28.199Z,90.78
2023-02-02T01:12:28.157Z,90.89
2023-02-02T01:13:28.181Z,91.30
2023-02-02T01:14:28.160Z,91.61
2023-02-02T01:15:28.145Z,92.07
2023-02-02T01:16:28.185Z,92.38
2023-02-02T01:17:28.129Z,92.28
2023-02-02T01:18:28.112Z,92.28
2023-02-02T01:19:28.109Z,92.90
2023-02-02T01:20:28.067Z,93.10
2023-02-02T01:21:28.088Z,93.00
2023-02-02T01:22:28.059Z,92.90
2023-02-02T01:23:28.042Z,93.41
2023-02-02T01:24:28.036Z,93.52
2023-02-02T01:25:28.025Z,93.73
2023-02-02T01:26:28.037Z,94.04
2023-02-02T01:27:28.008Z,94.45
2023-02-02T01:28:27.977Z,94.24
2023-02-02T01:29:27.977Z,94.56
2023-02-02T01:30:27.947Z,94.76
2023-02-02T01:31:27.975Z,94.45
2023-02-02T01:32:27.925Z,94.45
2023-02-02T01:33:27.913Z,95.01
2023-02-02T01:34:27.903Z,94.81
2023-02-02T01:35:27.893Z,94.91
2023-02-02T01:36:27.875Z,95.32
2023-02-02T01:37:27.879Z,95.22
2023-02-02T01:38:27.855Z,95.01
2023-02-02T01:39:27.903Z,95.12
2023-02-02T01:40:27.849Z,95.43
2023-02-02T01:41:27.833Z,95.01
2023-02-02T01:42:27.810Z,95.01
2023-02-02T01:43:27.790Z,94.81
2023-02-02T01:44:27.780Z,94.56
2023-02-02T01:45:27.769Z,94.24
2023-02-02T01:46:27.753Z,94.04
2023-02-02T01:47:27.791Z,94.04
2023-02-02T01:48:27.710Z,94.04
2023-02-02T01:49:27.736Z,94.04
2023-02-02T01:50:27.690Z,93.62
2023-02-02T01:51:27.699Z,93.73
2023-02-02T01:52:27.669Z,93.83
2023-02-02T01:53:27.677Z,93.52
2023-02-02T01:54:27.650Z,94.04
2023-02-02T01:55:27.638Z,93.93
2023-02-02T01:56:27.623Z,94.35
2023-02-02T01:57:27.622Z,94.97
2023-02-02T01:58:27.608Z,95.39
2023-02-02T01:59:27.604Z,96.05
2023-02-02T02:00:27.578Z,96.15
2023-02-02T02:01:27.566Z,96.36
2023-02-02T02:02:27.627Z,96.67
2023-02-02T02:03:27.598Z,96.98
2023-02-02T02:04:27.528Z,96.98
2023-02-02T02:05:27.517Z,96.57
2023-02-02T02:06:27.494Z,96.67
2023-02-02T02:07:27.486Z,96.78
2023-02-02T02:08:27.481Z,97.19
2023-02-02T02:09:27.463Z,97.19
2023-02-02T02:10:27.447Z,97.09
2023-02-02T02:11:27.475Z,96.98
2023-02-02T02:12:27.440Z,96.98
2023-02-02T02:13:27.409Z,97.09
2023-02-02T02:14:27.502Z,96.21
2023-02-02T02:15:27.383Z,96.01
2023-02-02T02:16:27.390Z,96.21
2023-02-02T02:17:27.386Z,96.01
2023-02-02T02:18:27.370Z,96.21
2023-02-02T02:19:27.350Z,96.11
2023-02-02T02:20:27.341Z,96.11
2023-02-02T02:21:27.309Z,96.01
2023-02-02T02:22:27.301Z,95.70
2023-02-02T02:23:27.310Z,95.59
2023-02-02T02:24:27.494Z,95.70
2023-02-02T02:25:27.258Z,95.49
2023-02-02T02:26:27.296Z,95.39
2023-02-02T02:27:27.230Z,95.28
2023-02-02T02:28:27.221Z,95.18
2023-02-02T02:29:27.207Z,94.66
2023-02-02T02:30:27.196Z,93.99
2023-02-02T02:31:27.286Z,94.20
2023-02-02T02:32:27.175Z,94.62
2023-02-02T02:33:27.191Z,93.99
2023-02-02T02:34:27.148Z,93.48
2023-02-02T02:35:27.135Z,93.58
2023-02-02T02:36:27.110Z,93.48
2023-02-02T02:37:27.114Z,93.37
2023-02-02T02:38:27.097Z,93.68
2023-02-02T02:39:27.082Z,93.58
2023-02-02T02:40:27.057Z,93.58
2023-02-02T02:41:27.063Z,93.79
2023-02-02T02:42:27.034Z,93.79
2023-02-02T02:43:27.048Z,93.58
2023-02-02T02:44:27.041Z,92.96
2023-02-02T02:45:27.217Z,93.37
2023-02-02T02:46:27.000Z,93.27
2023-02-02T02:47:26.991Z,93.06
2023-02-02T02:48:26.959Z,93.27
2023-02-02T02:49:26.962Z,93.48
2023-02-02T02:50:26.931Z,93.58
2023-02-02T02:51:26.943Z,93.79
2023-02-02T02:52:26.922Z,94.31
2023-02-02T02:53:26.912Z,93.99
2023-02-02T02:54:26.890Z,93.89
2023-02-02T02:55:26.937Z,93.89
2023-02-02T02:56:26.864Z,93.89
2023-02-02T02:57:26.854Z,94.10
2023-02-02T02:58:26.839Z,93.99
2023-02-02T02:59:26.843Z,94.10
2023-02-02T03:00:26.817Z,93.68
2023-02-02T03:01:26.820Z,93.89
2023-02-02T03:02:26.813Z,94.31
2023-02-02T03:03:26.968Z,94.20
2023-02-02T03:04:26.767Z,94.10
2023-02-02T03:05:27.114Z,93.79
2023-02-02T03:06:26.739Z,93.06
2023-02-02T03:07:26.737Z,92.96
2023-02-02T03:08:26.717Z,93.12
2023-02-02T03:09:26.717Z,92.96
2023-02-02T03:10:26.691Z,93.02
2023-02-02T03:11:26.689Z,92.81
2023-02-02T03:12:26.666Z,92.50
2023-02-02T03:13:26.675Z,92.40
2023-02-02T03:14:26.628Z,92.30
2023-02-02T03:15:27.026Z,92.09
2023-02-02T03:16:26.642Z,91.88
2023-02-02T03:17:26.604Z,92.19
2023-02-02T03:18:26.605Z,92.09
2023-02-02T03:19:26.574Z,91.99
2023-02-02T03:20:26.566Z,92.19
2023-02-02T03:21:26.566Z,91.88
2023-02-02T03:22:26.531Z,91.88
2023-02-02T03:23:26.545Z,91.99
2023-02-02T03:24:26.507Z,92.09
2023-02-02T03:25:26.909Z,91.78
2023-02-02T03:26:26.544Z,91.78
2023-02-02T03:27:26.491Z,91.57
2023-02-02T03:28:26.465Z,91.67
2023-02-02T03:29:26.465Z,91.88
2023-02-02T03:30:26.455Z,92.19
2023-02-02T03:31:26.493Z,92.09
2023-02-02T03:32:26.409Z,91.88
2023-02-02T03:33:26.416Z,91.99
2023-02-02T03:34:26.390Z,91.88
2023-02-02T03:35:26.653Z,92.03
2023-02-02T03:36:26.361Z,92.24
2023-02-02T03:37:26.359Z,92.03
2023-02-02T03:38:26.335Z,92.34
2023-02-02T03:39:26.328Z,92.13
2023-02-02T03:40:26.309Z,92.34
2023-02-02T03:41:26.302Z,92.34
2023-02-02T03:42:26.301Z,92.34
2023-02-02T03:43:26.283Z,92.40
2023-02-02T03:44:26.261Z,92.30
2023-02-02T03:45:26.598Z,92.19
2023-02-02T03:46:26.306Z,92.30
2023-02-02T03:47:26.220Z,91.99
2023-02-02T03:48:26.234Z,91.67
2023-02-02T03:49:26.197Z,91.47
2023-02-02T03:50:26.190Z,91.57
2023-02-02T03:51:26.173Z,91.47
2023-02-02T03:52:26.195Z,91.47
2023-02-02T03:53:26.158Z,91.57
2023-02-02T03:54:26.199Z,91.67
2023-02-02T03:55:26.394Z,91.36
2023-02-02T03:56:26.123Z,91.26
2023-02-02T03:57:26.100Z,91.47
2023-02-02T03:58:26.095Z,91.36
2023-02-02T03:59:26.096Z,91.16
2023-02-02T04:00:26.140Z,91.16
2023-02-02T04:01:26.147Z,91.30
2023-02-02T04:02:26.395Z,91.20
2023-02-02T04:03:26.052Z,91.30
2023-02-02T04:04:26.047Z,91.30
2023-02-02T04:05:26.322Z,91.30
2023-02-02T04:06:26.002Z,91.51
2023-02-02T04:07:25.972Z,91.51
2023-02-02T04:08:25.971Z,91.41
2023-02-02T04:09:25.974Z,91.51
2023-02-02T04:10:25.958Z,91.41
2023-02-02T04:11:25.919Z,91.41
2023-02-02T04:12:25.914Z,91.51
2023-02-02T04:13:25.888Z,91.72
2023-02-02T04:14:25.883Z,91.82
2023-02-02T04:15:26.260Z,91.61
2023-02-02T04:16:25.982Z,91.61
2023-02-02T04:17:25.829Z,91.51
2023-02-02T04:18:25.857Z,91.51
2023-02-02T04:19:25.838Z,91.30
2023-02-02T04:20:25.832Z,90.89
2023-02-02T04:21:25.813Z,90.68
2023-02-02T04:22:25.795Z,90.58
2023-02-02T04:23:25.784Z,90.68
2023-02-02T04:24:25.778Z,90.78
2023-02-02T04:25:26.217Z,90.89
2023-02-02T04:26:25.812Z,90.68
2023-02-02T04:27:25.717Z,90.68
2023-02-02T04:28:26.324Z,90.78
2023-02-02T04:29:25.687Z,90.68
2023-02-02T04:30:25.699Z,90.47
2023-02-02T04:31:25.699Z,90.37
2023-02-02T04:32:25.657Z,90.02
2023-02-02T04:33:25.644Z,90.12
2023-02-02T04:34:25.732Z,90.23
2023-02-02T04:35:25.950Z,90.02
2023-02-02T04:36:25.615Z,89.81
2023-02-02T04:37:25.586Z,90.02
2023-02-02T04:38:25.603Z,90.12
2023-02-02T04:39:25.562Z,90.23
2023-02-02T04:40:25.571Z,89.81
2023-02-02T04:41:25.557Z,89.71
2023-02-02T04:42:25.534Z,89.92
2023-02-02T04:43:25.531Z,90.12
2023-02-02T04:44:25.752Z,90.23
2023-02-02T04:45:25.915Z,90.33
2023-02-02T04:46:25.477Z,90.44
2023-02-02T04:47:25.462Z,90.44
2023-02-02T04:48:25.461Z,90.33
2023-02-02T04:49:25.437Z,90.64
2023-02-02T04:50:25.442Z,90.64
2023-02-02T04:51:25.443Z,90.74
2023-02-02T04:52:25.453Z,90.84
2023-02-02T04:53:25.399Z,91.05
2023-02-02T04:54:25.405Z,91.36
2023-02-02T04:55:25.755Z,91.51
2023-02-02T04:56:25.359Z,91.36
2023-02-02T04:57:25.327Z,91.72
2023-02-02T04:58:25.377Z,92.03
2023-02-02T04:59:25.338Z,92.13
2023-02-02T05:00:25.333Z,92.24
2023-02-02T05:01:25.316Z,92.34
2023-02-02T05:02:25.466Z,92.65
2023-02-02T05:03:25.292Z,92.65
2023-02-02T05:04:25.349Z,92.76
2023-02-02T05:05:25.659Z,92.96
2023-02-02T05:06:25.299Z,92.65
2023-02-02T05:07:25.208Z,92.65
2023-02-02T05:08:25.220Z,92.65
2023-02-02T05:09:25.206Z,92.03
2023-02-02T05:10:25.187Z,91.61
2023-02-02T05:11:25.163Z,91.51
2023-02-02T05:12:25.165Z,91.61
2023-02-02T05:13:25.137Z,91.61
2023-02-02T05:14:25.173Z,91.47
2023-02-02T05:15:25.594Z,91.41
2023-02-02T05:16:27.124Z,91.30
2023-02-02T05:17:25.083Z,91.41
2023-02-02T05:18:25.097Z,91.36
2023-02-02T05:19:25.075Z,91.72
2023-02-02T05:20:25.061Z,91.61
2023-02-02T05:21:25.032Z,91.82
2023-02-02T05:22:25.058Z,92.03
2023-02-02T05:23:25.015Z,92.13
2023-02-02T05:24:25.012Z,92.24
2023-02-02T05:25:25.375Z,92.44
2023-02-02T05:26:25.133Z,92.13
2023-02-02T05:27:24.951Z,92.24
2023-02-02T05:28:24.990Z,92.13
2023-02-02T05:29:24.930Z,91.82
2023-02-02T05:30:24.930Z,91.61
2023-02-02T05:31:24.947Z,91.61
2023-02-02T05:32:24.928Z,91.51
2023-02-02T05:33:31.944Z,91.51
2023-02-02T05:34:24.893Z,91.41
2023-02-02T05:35:25.323Z,90.99
2023-02-02T05:36:24.916Z,90.99
2023-02-02T05:37:24.840Z,90.58
2023-02-02T05:38:24.847Z,90.84
2023-02-02T05:39:24.852Z,90.64
2023-02-02T05:40:24.830Z,90.74
2023-02-02T05:41:24.807Z,90.84
2023-02-02T05:42:24.802Z,90.95
2023-02-02T05:43:24.780Z,90.64
2023-02-02T05:44:24.767Z,90.64
2023-02-02T05:45:25.083Z,90.84
2023-02-02T05:46:24.772Z,90.89
2023-02-02T05:47:24.733Z,90.99
2023-02-02T05:48:24.728Z,91.09
2023-02-02T05:49:24.697Z,91.20
2023-02-02T05:50:24.690Z,90.68
2023-02-02T05:51:24.670Z,90.68
2023-02-02T05:52:24.661Z,90.37
2023-02-02T05:53:24.708Z,90.47
2023-02-02T05:54:24.714Z,90.68
2023-02-02T05:55:25.069Z,90.47
2023-02-02T05:56:24.637Z,90.02
2023-02-02T05:57:24.597Z,90.26
2023-02-02T05:58:24.594Z,90.12
2023-02-02T05:59:24.591Z,90.23
2023-02-02T06:00:24.556Z,90.33
2023-02-02T06:01:24.539Z,90.37
2023-02-02T06:02:24.530Z,90.47
2023-02-02T06:03:24.657Z,90.78
2023-02-02T06:04:24.534Z,90.58
2023-02-02T06:05:25.036Z,90.68
2023-02-02T06:06:24.486Z,90.89
2023-02-02T06:07:24.499Z,90.89
2023-02-02T06:08:24.509Z,90.95
2023-02-02T06:09:24.468Z,91.09
2023-02-02T06:10:24.453Z,91.20
2023-02-02T06:11:24.409Z,91.09
2023-02-02T06:12:24.405Z,90.95
2023-02-02T06:13:24.448Z,91.09
2023-02-02T06:14:24.392Z,91.09
2023-02-02T06:15:24.882Z,91.20
2023-02-02T06:16:24.352Z,91.30
2023-02-02T06:17:24.343Z,91.20
2023-02-02T06:18:24.379Z,90.78
2023-02-02T06:19:24.331Z,90.89
2023-02-02T06:20:24.334Z,90.78
2023-02-02T06:21:24.284Z,90.78
2023-02-02T06:22:24.288Z,90.33
2023-02-02T06:23:24.260Z,90.37
2023-02-02T06:24:24.290Z,90.47
2023-02-02T06:25:24.594Z,90.44
2023-02-02T06:26:24.285Z,90.23
2023-02-02T06:27:24.218Z,90.23
2023-02-02T06:28:24.268Z,90.02
2023-02-02T06:29:24.242Z,89.86
2023-02-02T06:30:24.247Z,89.92
2023-02-02T06:31:24.250Z,89.65
2023-02-02T06:32:24.199Z,89.40
2023-02-02T06:33:24.154Z,89.29
2023-02-02T06:34:24.150Z,89.40
2023-02-02T06:35:24.479Z,89.44
2023-02-02T06:36:24.109Z,89.44
2023-02-02T06:37:24.154Z,89.54
2023-02-02T06:38:24.094Z,89.44
2023-02-02T06:39:24.116Z,89.34
2023-02-02T06:40:24.089Z,89.23
2023-02-02T06:41:24.051Z,89.13
2023-02-02T06:42:24.062Z,89.23
2023-02-02T06:43:24.052Z,89.23
2023-02-02T06:44:24.019Z,89.23
2023-02-02T06:45:24.396Z,89.13
2023-02-02T06:46:24.011Z,89.03
2023-02-02T06:47:25.419Z,88.92
2023-02-02T06:48:24.182Z,89.03
2023-02-02T06:49:23.974Z,88.92
2023-02-02T06:50:23.944Z,89.03
2023-02-02T06:51:23.915Z,89.03
2023-02-02T06:52:23.902Z,88.51
2023-02-02T06:53:23.885Z,88.09
2023-02-02T06:54:23.927Z,88.30
2023-02-02T06:55:24.264Z,88.09
2023-02-02T06:56:23.898Z,87.68
2023-02-02T06:57:23.869Z,87.47
2023-02-02T06:58:23.843Z,87.68
2023-02-02T06:59:23.855Z,87.68
2023-02-02T07:00:23.823Z,87.47
2023-02-02T07:01:23.882Z,87.16
2023-02-02T07:02:23.910Z,86.65
2023-02-02T07:03:23.801Z,86.23
2023-02-02T07:04:23.791Z,85.99
2023-02-02T07:05:24.163Z,85.61
2023-02-02T07:06:23.761Z,85.47
2023-02-02T07:07:23.713Z,85.68
2023-02-02T07:08:23.744Z,85.36
2023-02-02T07:09:23.719Z,85.36
2023-02-02T07:11:13.127Z,85.16
2023-02-02T07:11:24.751Z,85.30
2023-02-02T07:12:23.694Z,85.26
2023-02-02T07:13:23.723Z,84.74
2023-02-02T07:14:23.710Z,84.43
2023-02-02T07:15:24.113Z,84.12
2023-02-02T07:16:23.660Z,84.01
2023-02-02T07:17:23.625Z,84.43
2023-02-02T07:18:23.588Z,84.43
2023-02-02T07:19:23.575Z,84.33
2023-02-02T07:20:23.590Z,84.43
2023-02-02T07:21:23.575Z,84.64
2023-02-02T07:22:23.535Z,84.95
2023-02-02T07:23:23.542Z,84.95
2023-02-02T07:24:23.648Z,85.05
2023-02-02T07:25:24.017Z,85.26
2023-02-02T07:26:23.555Z,85.36
2023-02-02T07:27:23.565Z,85.57
2023-02-02T07:28:23.518Z,85.16
2023-02-02T07:29:23.487Z,85.36
2023-02-02T07:30:23.518Z,85.57
2023-02-02T07:31:23.766Z,85.71
2023-02-02T07:32:23.421Z,85.92
2023-02-02T07:33:23.391Z,86.02
2023-02-02T07:34:23.487Z,85.82
2023-02-02T07:35:23.678Z,85.82
2023-02-02T07:36:23.394Z,86.02
2023-02-02T07:37:23.373Z,86.13
2023-02-02T07:38:23.342Z,86.23
2023-02-02T07:39:23.306Z,86.23
2023-02-02T07:40:23.327Z,86.23
2023-02-02T07:41:23.320Z,86.54
2023-02-02T07:42:23.318Z,86.44
2023-02-02T07:43:23.278Z,86.44
2023-02-02T07:44:23.299Z,86.54
2023-02-02T07:45:23.287Z,86.54
2023-02-02T07:46:23.308Z,86.71
2023-02-02T07:47:23.268Z,86.81
2023-02-02T07:48:23.256Z,87.12
2023-02-02T07:49:23.275Z,87.12
2023-02-02T07:50:23.201Z,87.12
2023-02-02T07:51:23.233Z,87.23
2023-02-02T07:52:23.174Z,87.33
2023-02-02T07:53:23.164Z,87.33
2023-02-02T07:54:23.148Z,87.39
2023-02-02T07:55:23.148Z,87.49
2023-02-02T07:56:23.106Z,87.60
2023-02-02T07:57:23.100Z,87.91
2023-02-02T07:58:23.087Z,88.22
2023-02-02T07:59:23.139Z,88.67
2023-02-02T08:00:23.171Z,89.09
2023-02-02T08:01:23.389Z,89.40
2023-02-02T08:02:23.056Z,90.02
2023-02-02T08:03:23.065Z,89.50
2023-02-02T08:04:23.117Z,89.92
2023-02-02T08:05:23.562Z,90.23
2023-02-02T08:06:23.027Z,90.84
2023-02-02T08:07:23.022Z,91.05
2023-02-02T08:08:22.977Z,91.05
2023-02-02T08:09:23.002Z,91.16
2023-02-02T08:10:22.929Z,91.16
2023-02-02T08:11:22.955Z,91.20
2023-02-02T08:12:24.753Z,91.30
2023-02-02T08:13:22.907Z,91.30
2023-02-02T08:14:22.919Z,90.78
2023-02-02T08:15:23.194Z,90.95
2023-02-02T08:16:22.916Z,90.95
2023-02-02T08:17:22.936Z,90.95
2023-02-02T08:18:22.823Z,91.16
2023-02-02T08:19:22.865Z,91.09
2023-02-02T08:20:22.823Z,91.26
2023-02-02T08:21:22.877Z,91.36
2023-02-02T08:22:22.807Z,91.36
2023-02-02T08:23:22.756Z,91.47
2023-02-02T08:24:22.795Z,91.36
2023-02-02T08:25:23.121Z,91.47
2023-02-02T08:26:22.806Z,91.47
2023-02-02T08:27:22.775Z,91.26
2023-02-02T08:28:22.712Z,90.95
2023-02-02T08:29:22.751Z,91.05
2023-02-02T08:30:22.704Z,91.05
2023-02-02T08:31:22.775Z,90.95
2023-02-02T08:32:22.672Z,90.74
2023-02-02T08:33:22.681Z,90.74
2023-02-02T08:34:22.659Z,90.53
2023-02-02T08:35:22.941Z,90.44
2023-02-02T08:36:22.601Z,90.23
2023-02-02T08:37:22.607Z,89.92
2023-02-02T08:38:22.761Z,89.25
2023-02-02T08:39:22.638Z,89.15
2023-02-02T08:40:22.691Z,88.32
2023-02-02T08:41:22.546Z,87.81
2023-02-02T08:42:22.584Z,87.49
2023-02-02T08:43:22.533Z,87.49
2023-02-02T08:44:22.549Z,87.29
2023-02-02T08:46:02.657Z,87.60
2023-02-02T08:46:23.510Z,87.60
2023-02-02T08:47:22.517Z,87.08
2023-02-02T08:48:22.497Z,87.18
2023-02-02T08:49:22.857Z,87.04
2023-02-02T08:50:22.501Z,87.04
2023-02-02T08:51:22.450Z,86.94
2023-02-02T08:52:24.809Z,86.83
2023-02-02T08:53:22.402Z,86.83
2023-02-02T08:54:22.431Z,86.73
2023-02-02T08:55:22.558Z,86.42
2023-02-02T08:56:22.386Z,86.52
2023-02-02T08:57:22.382Z,86.73
2023-02-02T08:58:23.244Z,86.83
2023-02-02T08:59:22.355Z,86.63
2023-02-02T09:00:22.381Z,86.01
2023-02-02T09:01:22.569Z,86.21
2023-02-02T09:02:22.462Z,86.21
2023-02-02T09:03:22.292Z,86.21
2023-02-02T09:04:22.283Z,85.97
2023-02-02T09:05:22.489Z,85.66
2023-02-02T09:06:22.320Z,85.66
2023-02-02T09:07:22.273Z,85.76
2023-02-02T09:08:22.255Z,85.66
2023-02-02T09:09:22.232Z,85.55
2023-02-02T09:10:22.233Z,85.55
2023-02-02T09:11:22.207Z,85.76
2023-02-02T09:12:22.243Z,85.76
2023-02-02T09:13:23.332Z,85.45
2023-02-02T09:14:22.161Z,84.94
2023-02-02T09:15:22.504Z,84.79
2023-02-02T09:16:22.187Z,84.69
2023-02-02T09:17:22.178Z,84.89
2023-02-02T09:18:22.130Z,84.59
2023-02-02T09:19:22.089Z,84.59
2023-02-02T09:20:22.254Z,84.69
2023-02-02T09:21:22.064Z,84.28
2023-02-02T09:22:22.061Z,84.83
2023-02-02T09:23:22.055Z,85.24
2023-02-02T09:24:22.097Z,85.35
2023-02-02T09:25:22.249Z,85.45
2023-02-02T09:26:22.046Z,85.66
2023-02-02T09:27:22.080Z,85.66
2023-02-02T09:28:21.995Z,85.55
2023-02-02T09:29:21.945Z,85.45
2023-02-02T09:30:21.959Z,85.04
2023-02-02T09:31:21.991Z,84.31
2023-02-02T09:32:21.903Z,82.97
2023-02-02T09:33:21.938Z,83.39
2023-02-02T09:34:21.944Z,83.76
2023-02-02T09:35:21.950Z,83.97
2023-02-02T09:36:21.897Z,84.07
2023-02-02T09:37:21.891Z,84.38
2023-02-02T09:38:21.910Z,84.38
2023-02-02T09:39:21.860Z,84.69
2023-02-02T09:40:21.817Z,84.69
2023-02-02T09:41:21.817Z,84.48
2023-02-02T09:42:21.822Z,84.69
2023-02-02T09:43:21.815Z,84.89
2023-02-02T09:44:21.796Z,84.79
2023-02-02T09:45:21.786Z,84.89
2023-02-02T09:46:21.807Z,84.89
2023-02-02T09:47:21.793Z,84.38
2023-02-02T09:48:21.728Z,84.38
2023-02-02T09:49:21.731Z,84.59
2023-02-02T09:50:21.705Z,84.59
2023-02-02T09:51:21.668Z,84.17
2023-02-02T09:52:21.658Z,84.48
2023-02-02T09:53:21.701Z,84.28
2023-02-02T09:54:21.679Z,82.52
2023-02-02T09:55:21.697Z,83.04
2023-02-02T09:56:21.610Z,82.83
2023-02-02T09:57:21.613Z,82.83
2023-02-02T09:58:21.577Z,82.31
2023-02-02T09:59:24.235Z,82.62
2023-02-02T10:00:21.574Z,82.73
2023-02-02T10:01:21.662Z,82.62
2023-02-02T10:02:21.567Z,82.62
2023-02-02T10:03:21.536Z,82.48
2023-02-02T10:04:21.526Z,81.96
2023-02-02T10:05:21.633Z,81.24
2023-02-02T10:06:21.477Z,81.56
2023-02-02T10:07:21.513Z,81.56
2023-02-02T10:08:33.859Z,80.93
2023-02-02T10:09:22.523Z,81.24
2023-02-02T10:10:21.460Z,81.86
2023-02-02T10:11:21.461Z,81.04
2023-02-02T10:12:21.420Z,81.14
2023-02-02T10:13:21.516Z,80.83
2023-02-02T10:14:21.531Z,81.04
2023-02-02T10:15:21.405Z,81.14
2023-02-02T10:16:21.471Z,81.14
2023-02-02T10:17:21.389Z,80.62
2023-02-02T10:18:21.407Z,80.83
2023-02-02T10:19:21.364Z,80.62
2023-02-02T10:20:21.400Z,80.62
2023-02-02T10:21:21.367Z,79.90
2023-02-02T10:22:21.377Z,79.90
2023-02-02T10:23:21.284Z,80.00
2023-02-02T10:24:21.392Z,80.21
2023-02-02T10:25:21.713Z,79.80
2023-02-02T10:26:21.340Z,78.66
2023-02-02T10:27:21.247Z,78.39
2023-02-02T10:28:21.302Z,78.70
2023-02-02T10:29:21.221Z,78.45
2023-02-02T10:30:21.186Z,78.77
2023-02-02T10:31:21.334Z,77.84
2023-02-02T10:32:21.200Z,77.53
2023-02-02T10:33:21.196Z,75.98
2023-02-02T10:34:21.161Z,75.57
2023-02-02T10:35:21.355Z,76.08
2023-02-02T10:36:21.122Z,76.60
2023-02-02T10:37:21.148Z,76.50
2023-02-02T10:38:21.115Z,75.77
2023-02-02T10:39:21.080Z,76.18
2023-02-02T10:40:21.074Z,76.39
2023-02-02T10:41:21.069Z,76.18
2023-02-02T10:42:21.030Z,75.84
2023-02-02T10:43:21.050Z,74.50
2023-02-02T10:44:21.025Z,74.29
2023-02-02T10:45:21.046Z,73.88
2023-02-02T10:46:21.089Z,73.88
2023-02-02T10:47:21.040Z,73.33
2023-02-02T10:48:20.997Z,73.02
2023-02-02T10:49:20.966Z,73.43
2023-02-02T10:50:21.106Z,73.95
2023-02-02T10:51:20.973Z,74.74
2023-02-02T10:52:20.928Z,74.53
2023-02-02T10:53:21.108Z,74.43
2023-02-02T10:54:20.927Z,74.88
2023-02-02T10:55:20.883Z,73.74
2023-02-02T10:56:20.854Z,74.40
2023-02-02T10:57:20.887Z,74.50
2023-02-02T10:58:21.102Z,75.01
2023-02-02T10:59:20.836Z,75.22
2023-02-02T11:00:22.991Z,75.29
2023-02-02T11:01:20.840Z,75.18
2023-02-02T11:02:21.601Z,74.26
2023-02-02T11:03:20.814Z,73.64
2023-02-02T11:04:20.759Z,73.54
2023-02-02T11:05:20.753Z,73.74
2023-02-02T11:06:20.832Z,73.12
2023-02-02T11:07:20.762Z,72.09
2023-02-02T11:08:20.724Z,71.89
2023-02-02T11:09:20.688Z,72.19
2023-02-02T11:10:20.717Z,72.50
2023-02-02T11:11:20.713Z,72.09
2023-02-02T11:12:20.648Z,72.50
2023-02-02T11:13:20.709Z,72.40
2023-02-02T11:14:20.612Z,72.50
2023-02-02T11:15:20.633Z,71.68
2023-02-02T11:16:20.759Z,72.19
2023-02-02T11:17:20.599Z,72.40
2023-02-02T11:18:20.565Z,72.30
2023-02-02T11:19:20.588Z,72.30
2023-02-02T11:20:20.544Z,72.40
2023-02-02T11:21:20.539Z,71.78
2023-02-02T11:22:20.514Z,72.09
2023-02-02T11:23:20.583Z,72.30
2023-02-02T11:24:20.510Z,72.30
2023-02-02T11:25:20.494Z,72.64
2023-02-02T11:26:20.556Z,73.05
2023-02-02T11:27:20.482Z,73.16
2023-02-02T11:28:20.495Z,72.85
2023-02-02T11:29:20.473Z,71.41
2023-02-02T11:30:20.741Z,71.68
2023-02-02T11:31:20.574Z,71.92
2023-02-02T11:32:20.445Z,72.23
2023-02-02T11:33:20.385Z,72.44
2023-02-02T11:34:28.443Z,72.74
2023-02-02T11:35:20.497Z,72.74
2023-02-02T11:36:20.531Z,72.71
2023-02-02T11:37:21.218Z,71.41
2023-02-02T11:38:20.559Z,72.02
2023-02-02T11:39:20.385Z,72.30
2023-02-02T11:40:20.274Z,72.40
2023-02-02T11:41:20.585Z,72.50
2023-02-02T11:42:20.286Z,72.71
2023-02-02T11:43:20.259Z,72.81
2023-02-02T11:44:20.290Z,72.71
2023-02-02T11:45:20.231Z,72.40
2023-02-02T11:46:20.490Z,71.78
2023-02-02T11:47:20.199Z,72.09
2023-02-02T11:48:20.187Z,72.09
2023-02-02T11:49:20.228Z,72.30
2023-02-02T11:50:20.134Z,72.50
2023-02-02T11:51:20.223Z,73.02
2023-02-02T11:52:20.128Z,73.02
2023-02-02T11:53:20.129Z,72.61
2023-02-02T11:54:20.235Z,72.81
2023-02-02T11:55:20.114Z,73.02
2023-02-02T11:56:20.078Z,73.22
2023-02-02T11:57:20.110Z,73.22
2023-02-02T11:58:20.042Z,73.12
2023-02-02T11:59:20.032Z,73.22
2023-02-02T12:00:20.033Z,73.43
2023-02-02T12:01:20.020Z,73.85
2023-02-02T12:02:20.033Z,74.98
2023-02-02T12:03:19.976Z,75.09
2023-02-02T12:04:20.018Z,74.57
2023-02-02T12:05:19.981Z,74.91
2023-02-02T12:06:19.971Z,74.91
2023-02-02T12:07:19.939Z,74.57
2023-02-02T12:08:19.968Z,74.98
2023-02-02T12:09:19.939Z,74.33
2023-02-02T12:10:19.891Z,74.22
2023-02-02T12:11:19.867Z,74.53
2023-02-02T12:12:19.879Z,74.36
2023-02-02T12:13:19.844Z,74.15
2023-02-02T12:14:19.850Z,74.77
2023-02-02T12:15:19.978Z,75.39
2023-02-02T12:16:19.942Z,76.32
2023-02-02T12:17:19.821Z,77.70
2023-02-02T12:18:19.796Z,78.73
2023-02-02T12:19:19.779Z,81.04
2023-02-02T12:20:19.780Z,84.31
2023-02-02T12:21:19.745Z,86.83
2023-02-02T12:22:19.774Z,89.15
2023-02-02T12:23:19.901Z,91.09
2023-02-02T12:24:19.761Z,92.80
2023-02-02T12:25:19.700Z,93.10
2023-02-02T12:26:19.919Z,93.41
2023-02-02T12:27:19.655Z,93.41
2023-02-02T12:28:19.657Z,93.73
2023-02-02T12:29:19.646Z,93.00
2023-02-02T12:30:19.646Z,93.21
2023-02-02T12:31:19.647Z,93.77
2023-02-02T12:32:20.314Z,93.77
2023-02-02T12:33:19.614Z,93.25
2023-02-02T12:34:19.642Z,93.87
2023-02-02T12:35:19.720Z,94.60
2023-02-02T12:36:19.541Z,93.25
2023-02-02T12:37:19.735Z,93.25
2023-02-02T12:38:19.536Z,92.63
2023-02-02T12:39:19.519Z,92.53
2023-02-02T12:40:19.549Z,92.53
2023-02-02T12:41:19.504Z,92.63
2023-02-02T12:42:19.478Z,92.80
2023-02-02T12:43:19.464Z,93.21
2023-02-02T12:44:19.479Z,92.38
2023-02-02T12:45:19.449Z,92.28
2023-02-02T12:46:19.488Z,91.66
2023-02-02T12:47:19.426Z,92.28
2023-02-02T12:48:19.459Z,91.61
2023-02-02T12:49:19.417Z,91.51
2023-02-02T12:50:19.394Z,90.89
2023-02-02T12:51:19.359Z,90.58
2023-02-02T12:52:19.357Z,90.37